Time;durP1;ratioP1;P1;durP2;ratioP2;P2;SDS_P1;SDS_P2;PMS_P1;PMS_P2;Temp;Humidity;BMP_temperature;BMP_pressure;BME280_temperature;BME280_humidity;BME280_pressure;Samples;Min_cycle;Max_cycle;Signal;HPM_P1;HPM_P2
2022/10/19 00:01:10;;;;;;;12.30;5.10;;;18.70;99.90;;;;;;5073204;28;20379;-88
2022/10/19 00:03:36;;;;;;;11.30;4.75;;;18.70;99.90;;;;;;5069477;28;20339;-88
2022/10/19 00:06:11;;;;;;;14.05;5.50;;;18.60;99.90;;;;;;5073643;28;20043;-88
2022/10/19 00:08:37;;;;;;;11.38;5.07;;;18.60;99.90;;;;;;5067682;28;20055;-88
2022/10/19 00:11:03;;;;;;;18.25;5.93;;;18.60;99.90;;;;;;5068884;28;20025;-88
2022/10/19 00:13:28;;;;;;;16.08;5.80;;;18.60;99.90;;;;;;5071173;28;20373;-88
2022/10/19 00:15:57;;;;;;;7.95;4.60;;;18.70;99.90;;;;;;5070174;28;20213;-88
2022/10/19 00:18:23;;;;;;;13.32;5.60;;;18.70;99.90;;;;;;5067860;28;20130;-88
2022/10/19 00:20:48;;;;;;;14.38;5.00;;;18.70;99.90;;;;;;5060553;28;20436;-88
2022/10/19 00:23:14;;;;;;;11.15;5.20;;;18.70;99.90;;;;;;5069411;28;20056;-88
2022/10/19 00:25:40;;;;;;;15.55;5.68;;;18.70;99.90;;;;;;5058544;28;20290;-88
2022/10/19 00:28:05;;;;;;;9.70;4.55;;;18.70;99.90;;;;;;5059350;28;20029;-88
2022/10/19 00:30:31;;;;;;;13.77;5.45;;;18.70;99.90;;;;;;5067770;28;20263;-88
2022/10/19 00:32:56;;;;;;;17.17;6.00;;;18.70;99.90;;;;;;5070767;28;20039;-88
2022/10/19 00:35:22;;;;;;;16.75;5.38;;;18.70;99.90;;;;;;5079954;28;20316;-88
2022/10/19 00:37:48;;;;;;;15.20;6.05;;;18.70;99.90;;;;;;5070982;28;20028;-88
2022/10/19 00:40:13;;;;;;;13.35;4.80;;;18.60;99.90;;;;;;5068730;28;20056;-88
2022/10/19 00:42:39;;;;;;;16.88;5.35;;;18.70;99.90;;;;;;5065145;28;20033;-88
2022/10/19 00:45:14;;;;;;;17.70;5.75;;;18.60;99.90;;;;;;5070407;28;20024;-88
2022/10/19 00:47:41;;;;;;;11.55;5.40;;;18.70;99.90;;;;;;5067449;28;20029;-88
2022/10/19 00:50:08;;;;;;;14.52;5.68;;;18.60;99.90;;;;;;5063170;28;20050;-88
2022/10/19 00:52:33;;;;;;;16.63;6.18;;;18.60;99.90;;;;;;5062021;28;20031;-88
2022/10/19 00:54:59;;;;;;;20.48;6.18;;;18.60;99.90;;;;;;5064452;28;20453;-89
2022/10/19 00:57:29;;;;;;;17.20;5.95;;;18.60;99.90;;;;;;5071364;28;20024;-88
2022/10/19 00:59:55;;;;;;;16.17;5.60;;;18.60;99.90;;;;;;5075095;28;20017;-88
2022/10/19 01:02:21;;;;;;;14.02;5.63;;;18.60;99.90;;;;;;5074089;28;20336;-88
2022/10/19 01:04:50;;;;;;;14.45;5.28;;;18.60;99.90;;;;;;5069048;28;20020;-88
2022/10/19 01:07:17;;;;;;;17.92;5.88;;;18.60;99.90;;;;;;5069584;28;20025;-88
2022/10/19 01:09:42;;;;;;;20.02;6.25;;;18.60;99.90;;;;;;5073336;28;20008;-88
2022/10/19 01:12:28;;;;;;;14.25;5.53;;;18.60;99.90;;;;;;5071298;28;20063;-88
2022/10/19 01:15:10;;;;;;;17.17;5.97;;;18.50;99.90;;;;;;5072474;28;20031;-88
2022/10/19 01:17:59;;;;;;;12.95;5.63;;;18.50;99.90;;;;;;5067333;28;20021;-88
2022/10/19 01:20:40;;;;;;;18.00;6.05;;;18.40;99.90;;;;;;5093975;28;20036;-88
2022/10/19 01:23:28;;;;;;;17.50;6.13;;;18.40;99.90;;;;;;5066533;28;20327;-88
2022/10/19 01:26:06;;;;;;;15.60;6.35;;;18.40;99.90;;;;;;5061358;28;20025;-88
2022/10/19 01:28:57;;;;;;;15.27;5.40;;;18.40;99.90;;;;;;5075122;28;20049;-88
2022/10/19 01:31:35;;;;;;;17.13;6.10;;;18.40;99.90;;;;;;5073042;28;20025;-88
2022/10/19 01:34:09;;;;;;;19.95;6.65;;;18.40;99.90;;;;;;5073649;28;20253;-88
2022/10/19 01:36:55;;;;;;;19.92;6.70;;;18.40;99.90;;;;;;5070427;28;20028;-88
2022/10/19 01:40:02;;;;;;;16.10;6.30;;;18.30;99.90;;;;;;5070141;28;20028;-88
2022/10/19 01:42:32;;;;;;;14.52;6.55;;;18.30;99.90;;;;;;5038726;28;20033;-88
2022/10/19 01:45:18;;;;;;;25.33;6.70;;;18.30;99.90;;;;;;5063466;28;20185;-88
2022/10/19 01:47:57;;;;;;;18.08;6.55;;;18.20;99.90;;;;;;5065652;28;20028;-88
2022/10/19 01:50:25;;;;;;;16.63;6.20;;;18.20;99.90;;;;;;5067156;28;20017;-88
2022/10/19 01:52:54;;;;;;;16.58;5.95;;;18.20;99.90;;;;;;5064872;28;20032;-88
2022/10/19 01:55:21;;;;;;;13.35;6.05;;;18.30;99.90;;;;;;5064978;28;20024;-88
2022/10/19 01:57:52;;;;;;;18.77;6.32;;;18.30;99.90;;;;;;5074983;28;20017;-88
2022/10/19 02:00:20;;;;;;;22.85;6.57;;;18.30;99.90;;;;;;5073933;28;20135;-88
2022/10/19 02:02:49;;;;;;;17.38;6.82;;;18.30;99.90;;;;;;5072677;28;20328;-90
2022/10/19 02:05:18;;;;;;;18.63;6.43;;;18.30;99.90;;;;;;5073482;28;20309;-88
2022/10/19 02:07:49;;;;;;;19.38;7.20;;;18.30;99.90;;;;;;5071551;28;20268;-88
2022/10/19 02:10:15;;;;;;;16.23;6.95;;;18.40;99.90;;;;;;5071604;28;20024;-88
2022/10/19 02:12:42;;;;;;;13.52;6.93;;;18.40;99.90;;;;;;5068907;28;20185;-88
2022/10/19 02:15:14;;;;;;;14.23;6.43;;;18.40;99.90;;;;;;5072103;28;20185;-88
2022/10/19 02:17:45;;;;;;;17.17;6.10;;;18.30;99.90;;;;;;5067828;28;20348;-88
2022/10/19 02:20:12;;;;;;;16.05;6.88;;;18.30;99.90;;;;;;5080126;28;20025;-88
2022/10/19 02:22:38;;;;;;;22.98;7.18;;;18.30;99.90;;;;;;5077367;28;20150;-88
2022/10/19 02:25:04;;;;;;;19.63;6.68;;;18.30;99.90;;;;;;5068766;28;20017;-88
2022/10/19 02:27:30;;;;;;;16.83;6.82;;;18.20;99.90;;;;;;5064796;28;20050;-88
2022/10/19 02:29:56;;;;;;;21.70;7.30;;;18.20;99.90;;;;;;5071368;28;20025;-88
2022/10/19 02:32:21;;;;;;;23.25;7.30;;;18.20;99.90;;;;;;5069902;28;20020;-88
2022/10/19 02:34:47;;;;;;;24.48;7.63;;;18.20;99.90;;;;;;5068397;28;20053;-88
2022/10/19 02:37:13;;;;;;;16.58;7.15;;;18.20;99.90;;;;;;5078930;28;20091;-88
2022/10/19 02:39:39;;;;;;;20.08;6.88;;;18.20;99.90;;;;;;5067878;28;20071;-88
2022/10/19 02:42:23;;;;;;;17.98;7.10;;;18.20;99.90;;;;;;5077249;28;20047;-88
2022/10/19 02:44:57;;;;;;;18.83;7.05;;;18.20;99.90;;;;;;5073237;28;20248;-88
2022/10/19 02:48:03;;;;;;;23.40;7.28;;;18.20;99.90;;;;;;5076783;28;20315;-88
2022/10/19 02:50:29;;;;;;;16.73;6.60;;;18.20;99.90;;;;;;5066002;28;20088;-88
2022/10/19 02:52:56;;;;;;;19.88;6.75;;;18.20;99.90;;;;;;5061472;28;20028;-88
2022/10/19 02:55:22;;;;;;;20.13;6.45;;;18.20;99.90;;;;;;5065042;28;20077;-88
2022/10/19 02:57:48;;;;;;;16.65;6.50;;;18.20;99.90;;;;;;5081082;28;20321;-88
2022/10/19 03:00:13;;;;;;;18.33;6.75;;;18.20;99.90;;;;;;5068643;28;20324;-88
2022/10/19 03:02:39;;;;;;;16.10;6.20;;;18.20;99.90;;;;;;5078341;28;20040;-87
2022/10/19 03:05:05;;;;;;;23.02;7.13;;;18.20;99.90;;;;;;5071981;28;20017;-88
2022/10/19 03:07:31;;;;;;;19.52;6.93;;;18.30;99.90;;;;;;5075862;28;20032;-88
2022/10/19 03:09:56;;;;;;;18.23;7.03;;;18.30;99.90;;;;;;5071920;28;20024;-88
2022/10/19 03:12:22;;;;;;;17.52;6.05;;;18.20;99.90;;;;;;5074127;28;20024;-88
2022/10/19 03:14:48;;;;;;;14.75;7.00;;;18.20;99.90;;;;;;5069142;28;20284;-88
2022/10/19 03:17:13;;;;;;;17.35;6.60;;;18.30;99.90;;;;;;5071606;28;20110;-88
2022/10/19 03:19:39;;;;;;;22.35;6.88;;;18.30;99.90;;;;;;5067738;28;20016;-87
2022/10/19 03:22:05;;;;;;;16.35;5.80;;;18.30;99.90;;;;;;5067977;28;20043;-88
2022/10/19 03:24:31;;;;;;;20.30;6.97;;;18.30;99.90;;;;;;5061413;28;20044;-88
2022/10/19 03:26:56;;;;;;;12.88;6.22;;;18.30;99.90;;;;;;5062899;28;20032;-88
2022/10/19 03:29:22;;;;;;;14.07;6.80;;;18.40;99.90;;;;;;5055918;28;20023;-89
2022/10/19 03:31:48;;;;;;;15.10;6.32;;;18.30;99.90;;;;;;5056575;28;20023;-88
2022/10/19 03:34:14;;;;;;;18.75;6.38;;;18.40;99.90;;;;;;5070888;28;20049;-88
2022/10/19 03:36:40;;;;;;;12.30;6.07;;;18.40;99.90;;;;;;5068962;28;20048;-88
2022/10/19 03:39:10;;;;;;;16.70;6.40;;;18.30;99.90;;;;;;5071087;28;20340;-88
2022/10/19 03:41:36;;;;;;;11.43;5.82;;;18.30;99.90;;;;;;5065571;28;20035;-88
2022/10/19 03:44:03;;;;;;;14.77;6.90;;;18.30;99.90;;;;;;5061946;28;20039;-88
2022/10/19 03:46:29;;;;;;;17.73;7.70;;;18.20;99.90;;;;;;5062446;28;20039;-88
2022/10/19 03:48:55;;;;;;;21.75;6.75;;;18.30;99.90;;;;;;5071706;28;20016;-88
2022/10/19 03:51:26;;;;;;;18.25;7.25;;;18.20;99.90;;;;;;5070403;28;20021;-88
2022/10/19 03:54:06;;;;;;;16.83;7.25;;;18.20;99.90;;;;;;5070954;28;20039;-88
2022/10/19 03:56:34;;;;;;;18.13;7.28;;;18.20;99.90;;;;;;5072542;28;20255;-88
2022/10/19 03:59:01;;;;;;;14.00;7.30;;;18.20;99.90;;;;;;5078194;28;20023;-88
2022/10/19 04:01:30;;;;;;;16.38;6.70;;;18.10;99.90;;;;;;5068202;28;20052;-88
2022/10/19 04:04:02;;;;;;;15.38;6.15;;;18.10;99.90;;;;;;5068795;28;20309;-88
2022/10/19 04:06:38;;;;;;;21.98;8.15;;;18.10;99.90;;;;;;5076161;28;20121;-87
2022/10/19 04:09:05;;;;;;;18.85;7.00;;;18.20;99.90;;;;;;5071527;28;20093;-88
2022/10/19 04:11:32;;;;;;;22.85;7.10;;;18.10;99.90;;;;;;5081454;28;20342;-88
2022/10/19 04:13:58;;;;;;;20.38;7.43;;;18.10;99.90;;;;;;5070713;28;20024;-88
2022/10/19 04:16:26;;;;;;;16.10;6.88;;;18.10;99.90;;;;;;5077762;28;20013;-89
2022/10/19 04:18:52;;;;;;;15.38;7.18;;;18.10;99.90;;;;;;5066306;28;20027;-88
2022/10/19 04:21:28;;;;;;;18.70;7.30;;;18.10;99.90;;;;;;5065956;28;20021;-88
2022/10/19 04:23:58;;;;;;;22.85;7.55;;;18.00;99.90;;;;;;5067923;28;20228;-88
2022/10/19 04:26:24;;;;;;;14.45;6.70;;;18.00;99.90;;;;;;5066212;28;20092;-88
2022/10/19 04:28:49;;;;;;;18.58;7.20;;;18.00;99.90;;;;;;5067237;28;20024;-88
2022/10/19 04:31:15;;;;;;;19.70;7.30;;;18.00;99.90;;;;;;5062035;28;20045;-88
2022/10/19 04:33:41;;;;;;;18.58;7.00;;;17.90;99.90;;;;;;5073161;28;20043;-88
2022/10/19 04:36:09;;;;;;;17.10;6.65;;;18.00;99.90;;;;;;5067951;28;20131;-88
2022/10/19 04:38:35;;;;;;;17.20;6.85;;;18.00;99.90;;;;;;5064299;28;20031;-87
2022/10/19 04:41:06;;;;;;;16.65;6.95;;;18.00;99.90;;;;;;5055493;28;20504;-88
2022/10/19 04:43:31;;;;;;;18.25;7.15;;;18.00;99.90;;;;;;5061283;28;20218;-90
2022/10/19 04:46:05;;;;;;;17.10;7.75;;;18.00;99.90;;;;;;5062040;28;20145;-88
2022/10/19 04:48:33;;;;;;;18.10;7.57;;;18.00;99.90;;;;;;5065300;28;20029;-88
2022/10/19 04:50:59;;;;;;;19.92;7.28;;;18.00;99.90;;;;;;5062543;28;20017;-88
2022/10/19 04:53:25;;;;;;;21.92;7.40;;;18.00;99.90;;;;;;5059569;28;20106;-90
2022/10/19 04:55:51;;;;;;;28.60;8.15;;;17.90;99.90;;;;;;5068286;28;20023;-88
2022/10/19 04:58:16;;;;;;;19.20;6.97;;;17.90;99.90;;;;;;5069102;28;20029;-88
2022/10/19 05:00:42;;;;;;;24.38;7.80;;;17.90;99.90;;;;;;5070688;28;20016;-88
2022/10/19 05:03:08;;;;;;;22.88;7.13;;;17.90;99.90;;;;;;5064910;28;20036;-88
2022/10/19 05:05:34;;;;;;;15.95;7.95;;;18.00;99.90;;;;;;5072509;28;20009;-88
2022/10/19 05:08:00;;;;;;;19.05;7.00;;;17.90;99.90;;;;;;5063940;28;20021;-89
2022/10/19 05:10:26;;;;;;;18.20;6.97;;;17.90;99.90;;;;;;5075167;28;20031;-88
2022/10/19 05:12:52;;;;;;;17.73;8.05;;;17.90;99.90;;;;;;5068176;28;20045;-88
2022/10/19 05:15:17;;;;;;;16.60;7.18;;;17.90;99.90;;;;;;5070459;28;20047;-88
2022/10/19 05:17:43;;;;;;;17.55;7.15;;;17.90;99.90;;;;;;5071035;28;20020;-90
2022/10/19 05:20:10;;;;;;;18.75;7.25;;;17.90;99.90;;;;;;5064537;28;20021;-88
2022/10/19 05:22:36;;;;;;;20.13;7.75;;;17.90;99.90;;;;;;5067462;28;20036;-88
2022/10/19 05:25:03;;;;;;;19.73;7.25;;;17.80;99.90;;;;;;5062640;28;20122;-88
2022/10/19 05:27:28;;;;;;;17.08;7.47;;;17.90;99.90;;;;;;5061924;28;20060;-88
2022/10/19 05:29:54;;;;;;;17.23;6.82;;;17.90;99.90;;;;;;5058277;28;20469;-88
2022/10/19 05:32:20;;;;;;;22.75;7.70;;;17.90;99.90;;;;;;5060103;28;20067;-88
2022/10/19 05:34:45;;;;;;;14.35;7.13;;;17.80;99.90;;;;;;5058070;28;20037;-88
2022/10/19 05:37:11;;;;;;;16.65;7.10;;;17.80;99.90;;;;;;5067617;28;20033;-89
2022/10/19 05:39:36;;;;;;;23.70;7.10;;;17.80;99.90;;;;;;5056411;28;20059;-88
2022/10/19 05:42:02;;;;;;;13.82;7.20;;;17.80;99.90;;;;;;5078172;28;20021;-88
2022/10/19 05:44:28;;;;;;;20.17;7.40;;;17.80;99.90;;;;;;5071513;28;20602;-89
2022/10/19 05:46:54;;;;;;;15.02;7.15;;;17.80;99.90;;;;;;5078399;28;20020;-88
2022/10/19 05:49:21;;;;;;;15.43;6.90;;;17.80;99.90;;;;;;5072358;28;20611;-89
2022/10/19 05:51:47;;;;;;;17.77;7.53;;;17.80;99.90;;;;;;5073950;28;20020;-88
2022/10/19 05:54:13;;;;;;;19.13;7.80;;;17.80;99.90;;;;;;5072352;28;20025;-88
2022/10/19 05:56:40;;;;;;;24.05;7.78;;;17.80;99.90;;;;;;5073257;28;20021;-88
2022/10/19 05:59:07;;;;;;;18.65;7.05;;;17.70;99.90;;;;;;5075531;28;20008;-88
2022/10/19 06:01:34;;;;;;;17.83;7.60;;;17.70;99.90;;;;;;5070808;28;20032;-89
2022/10/19 06:04:01;;;;;;;19.17;7.03;;;17.70;99.90;;;;;;5070613;28;20032;-88
2022/10/19 06:06:27;;;;;;;19.95;8.07;;;17.70;99.90;;;;;;5078939;28;20029;-89
2022/10/19 06:08:54;;;;;;;18.25;7.55;;;17.70;99.90;;;;;;5073354;28;20074;-89
2022/10/19 06:11:33;;;;;;;15.00;7.07;;;17.70;99.90;;;;;;5080725;28;20091;-88
2022/10/19 06:14:01;;;;;;;20.00;8.80;;;17.60;99.90;;;;;;5068684;28;20100;-88
2022/10/19 06:16:28;;;;;;;22.20;8.98;;;17.60;99.90;;;;;;5071574;28;20012;-88
2022/10/19 06:18:55;;;;;;;27.27;8.05;;;17.60;99.90;;;;;;5068379;28;20012;-88
2022/10/19 06:21:23;;;;;;;18.73;7.38;;;17.60;99.90;;;;;;5075392;28;20195;-88
2022/10/19 06:23:54;;;;;;;12.65;6.80;;;17.60;99.90;;;;;;5071217;28;20328;-88
2022/10/19 06:26:20;;;;;;;20.10;7.82;;;17.60;99.90;;;;;;5066536;28;20013;-88
2022/10/19 06:28:47;;;;;;;20.20;7.78;;;17.60;99.90;;;;;;5065153;28;20240;-88
2022/10/19 06:31:17;;;;;;;17.58;7.68;;;17.60;99.90;;;;;;5063488;28;20013;-88
2022/10/19 06:33:44;;;;;;;21.67;7.63;;;17.60;99.90;;;;;;5069154;28;20047;-88
2022/10/19 06:36:19;;;;;;;20.33;7.35;;;17.60;99.90;;;;;;5062627;28;20102;-85
2022/10/19 06:38:45;;;;;;;;;;;17.60;99.90;;;;;;5064403;28;20021;-84
2022/10/19 06:41:11;;;;;;;17.88;7.28;;;17.60;99.90;;;;;;5056708;28;20007;-84
2022/10/19 06:43:37;;;;;;;14.88;7.30;;;17.60;99.90;;;;;;5058662;28;20036;-84
2022/10/19 06:46:04;;;;;;;15.73;6.88;;;17.60;99.90;;;;;;5055331;28;20051;-84
2022/10/19 06:48:29;;;;;;;17.92;7.20;;;17.60;99.90;;;;;;5055668;28;20033;-84
2022/10/19 06:51:00;;;;;;;22.08;7.28;;;17.60;99.90;;;;;;5054554;28;20021;-84
2022/10/19 06:53:27;;;;;;;23.38;7.78;;;17.60;99.90;;;;;;5057970;28;20028;-84
2022/10/19 06:55:57;;;;;;;15.32;7.15;;;17.60;99.90;;;;;;5064658;28;20021;-84
2022/10/19 06:58:24;;;;;;;21.02;8.20;;;17.60;99.90;;;;;;5051673;28;20033;-84
2022/10/19 07:00:58;;;;;;;22.60;9.30;;;17.70;99.90;;;;;;5061993;28;20012;-84
2022/10/19 07:03:25;;;;;;;18.23;7.25;;;17.70;99.90;;;;;;5064469;28;20037;-84
2022/10/19 07:06:01;;;;;;;17.88;7.93;;;17.70;99.90;;;;;;5068662;28;20448;-84
2022/10/19 07:08:28;;;;;;;18.48;7.60;;;17.70;99.90;;;;;;5058196;28;20369;-84
2022/10/19 07:10:57;;;;;;;22.73;7.90;;;17.80;99.90;;;;;;5062640;28;20020;-84
2022/10/19 07:13:23;;;;;;;18.30;7.40;;;17.80;99.90;;;;;;5064111;28;20074;-84
2022/10/19 07:15:49;;;;;;;16.83;7.22;;;17.80;99.90;;;;;;5055671;28;20351;-84
2022/10/19 07:18:15;;;;;;;20.67;7.40;;;17.80;99.90;;;;;;5059503;28;20032;-84
2022/10/19 07:20:40;;;;;;;19.42;7.97;;;17.80;99.90;;;;;;5054693;28;20027;-84
2022/10/19 07:23:06;;;;;;;23.05;7.97;;;17.90;99.90;;;;;;5056052;28;20424;-84
2022/10/19 07:25:32;;;;;;;17.02;7.20;;;17.90;99.90;;;;;;5053761;28;20017;-84
2022/10/19 07:27:58;;;;;;;18.15;7.15;;;17.90;99.90;;;;;;5052983;28;20473;-84
2022/10/19 07:30:24;;;;;;;15.70;7.20;;;18.00;99.90;;;;;;5052235;28;20060;-84
2022/10/19 07:32:49;;;;;;;16.20;7.03;;;18.00;99.90;;;;;;5051123;28;20039;-84
2022/10/19 07:35:15;;;;;;;22.88;7.50;;;18.00;99.90;;;;;;5068394;28;20075;-84
2022/10/19 07:37:40;;;;;;;17.75;6.90;;;18.00;99.90;;;;;;5058538;28;20055;-84
2022/10/19 07:40:07;;;;;;;18.30;7.20;;;18.10;99.90;;;;;;5058038;28;20397;-84
2022/10/19 07:42:32;;;;;;;18.58;6.32;;;18.10;99.90;;;;;;5057628;28;20393;-84
2022/10/19 07:45:01;;;;;;;18.17;8.85;;;18.20;99.90;;;;;;5054369;28;20028;-84
2022/10/19 07:47:27;;;;;;;21.83;8.13;;;18.20;99.90;;;;;;5056570;28;20362;-84
2022/10/19 07:49:52;;;;;;;13.55;7.40;;;18.30;99.90;;;;;;5052943;28;20028;-84
2022/10/19 07:52:19;;;;;;;19.67;6.60;;;18.30;99.90;;;;;;5053910;28;20035;-84
2022/10/19 07:54:48;;;;;;;20.85;6.82;;;18.40;99.90;;;;;;5051369;28;20040;-84
2022/10/19 07:57:14;;;;;;;16.48;6.70;;;18.40;99.90;;;;;;5051226;28;20558;-84
2022/10/19 07:59:39;;;;;;;20.10;7.18;;;18.30;99.90;;;;;;5056623;28;20024;-84
2022/10/19 08:02:12;;;;;;;18.30;7.28;;;18.40;99.90;;;;;;5057283;28;20378;-84
2022/10/19 08:04:38;;;;;;;14.63;6.07;;;18.40;99.90;;;;;;5061742;28;20078;-85
2022/10/19 08:07:04;;;;;;;18.23;6.78;;;18.40;99.90;;;;;;5060064;28;20044;-85
2022/10/19 08:09:29;;;;;;;15.30;6.85;;;18.50;99.90;;;;;;5052845;28;20028;-85
2022/10/19 08:11:56;;;;;;;19.25;6.75;;;18.50;99.90;;;;;;5060537;28;20017;-84
2022/10/19 08:14:21;;;;;;;19.15;7.22;;;18.50;99.90;;;;;;5055202;28;20044;-84
2022/10/19 08:16:47;;;;;;;19.80;6.53;;;18.60;99.90;;;;;;5060061;28;20017;-84
2022/10/19 08:19:14;;;;;;;15.73;6.95;;;18.70;99.90;;;;;;5054330;28;20037;-84
2022/10/19 08:21:42;;;;;;;23.27;6.60;;;18.80;99.90;;;;;;5063079;28;20020;-83
2022/10/19 08:24:09;;;;;;;17.15;6.32;;;19.00;99.90;;;;;;5058444;28;20152;-84
2022/10/19 08:26:37;;;;;;;20.25;6.13;;;19.10;99.90;;;;;;5054332;28;20139;-84
2022/10/19 08:29:17;;;;;;;19.23;6.13;;;19.20;99.90;;;;;;5051228;28;20021;-84
2022/10/19 08:31:44;;;;;;;16.55;6.43;;;19.40;99.90;;;;;;5056611;28;20431;-84
2022/10/19 08:34:11;;;;;;;17.63;6.38;;;19.40;99.90;;;;;;5049670;28;20098;-84
2022/10/19 08:36:37;;;;;;;18.60;5.93;;;19.40;99.90;;;;;;5057430;28;20020;-84
2022/10/19 08:39:08;;;;;;;18.30;6.05;;;19.50;99.90;;;;;;5060023;28;20519;-84
2022/10/19 08:41:52;;;;;;;14.43;5.75;;;19.50;99.90;;;;;;5059224;28;20025;-84
2022/10/19 08:44:42;;;;;;;15.05;6.45;;;19.50;99.90;;;;;;5055612;28;20036;-84
2022/10/19 08:47:20;;;;;;;18.10;5.75;;;19.60;99.90;;;;;;5062008;28;20024;-84
2022/10/19 08:49:46;;;;;;;15.43;5.72;;;19.70;99.90;;;;;;5056684;28;20025;-84
2022/10/19 08:52:24;;;;;;;20.85;6.13;;;19.70;99.90;;;;;;5051899;28;20476;-84
2022/10/19 08:54:56;;;;;;;20.60;6.30;;;19.80;99.90;;;;;;5050943;28;20117;-84
2022/10/19 08:57:50;;;;;;;15.18;5.50;;;19.90;99.90;;;;;;5050801;28;20029;-84
2022/10/19 09:00:39;;;;;;;13.23;5.95;;;20.00;99.90;;;;;;5063155;28;20016;-84
2022/10/19 09:03:23;;;;;;;16.25;6.05;;;20.10;99.90;;;;;;5057842;28;20051;-84
2022/10/19 09:05:57;;;;;;;18.02;5.85;;;20.10;99.90;;;;;;5067204;28;20126;-84
2022/10/19 09:08:23;;;;;;;18.63;5.85;;;20.20;99.90;;;;;;5062563;28;20420;-84
2022/10/19 09:10:52;;;;;;;16.25;6.25;;;20.30;99.90;;;;;;5062214;28;20016;-84
2022/10/19 09:14:06;;;;;;;18.30;5.72;;;20.30;99.90;;;;;;5061146;28;20025;-84
2022/10/19 09:16:33;;;;;;;20.17;6.00;;;20.40;99.90;;;;;;5023561;28;20028;-84
2022/10/19 09:18:59;;;;;;;18.08;5.28;;;20.50;99.90;;;;;;5053572;28;20401;-84
2022/10/19 09:21:45;;;;;;;16.58;5.45;;;20.60;99.90;;;;;;5059329;28;20021;-84
2022/10/19 09:24:37;;;;;;;13.07;4.93;;;20.60;99.90;;;;;;5056589;28;20393;-84
2022/10/19 09:27:04;;;;;;;18.83;5.47;;;20.70;99.90;;;;;;5081865;28;20031;-84
2022/10/19 09:29:40;;;;;;;15.20;4.90;;;20.80;99.90;;;;;;5054557;28;20492;-84
2022/10/19 09:32:46;;;;;;;15.90;5.88;;;20.90;99.90;;;;;;5066463;28;20049;-84
2022/10/19 09:35:30;;;;;;;16.05;5.57;;;21.00;99.90;;;;;;5061690;28;20572;-84
2022/10/19 09:37:57;;;;;;;15.27;5.03;;;21.00;99.90;;;;;;5065846;28;20024;-84
2022/10/19 09:40:28;;;;;;;13.82;4.72;;;21.10;99.90;;;;;;5062587;28;20021;-84
2022/10/19 09:42:58;;;;;;;10.90;5.18;;;21.20;99.90;;;;;;5057467;28;20090;-84
2022/10/19 09:46:11;;;;;;;19.35;5.85;;;21.20;99.90;;;;;;5060117;28;20659;-84
2022/10/19 09:48:48;;;;;;;17.33;5.65;;;21.40;99.90;;;;;;5058013;28;20025;-84
2022/10/19 09:51:16;;;;;;;21.40;5.65;;;21.50;99.90;;;;;;5064315;28;20020;-84
2022/10/19 09:53:46;;;;;;;18.00;5.38;;;21.60;99.90;;;;;;5055880;28;20029;-84
2022/10/19 09:56:26;;;;;;;18.98;5.47;;;21.70;99.90;;;;;;5053843;28;20090;-84
2022/10/19 09:58:56;;;;;;;19.77;5.20;;;21.70;99.90;;;;;;5052697;28;20060;-85
2022/10/19 10:01:58;;;;;;;19.30;5.18;;;21.80;99.90;;;;;;5060213;28;20024;-84
2022/10/19 10:04:23;;;;;;;17.52;4.55;;;21.90;99.90;;;;;;5064238;28;20036;-84
2022/10/19 10:06:49;;;;;;;15.85;5.13;;;22.00;99.90;;;;;;5065415;28;20028;-84
2022/10/19 10:09:26;;;;;;;16.27;4.75;;;22.10;99.90;;;;;;5052755;28;20020;-84
2022/10/19 10:11:55;;;;;;;19.95;5.45;;;22.10;99.90;;;;;;5058860;28;20024;-84
2022/10/19 10:14:35;;;;;;;15.60;4.50;;;22.20;99.90;;;;;;5065647;28;20109;-84
2022/10/19 10:17:15;;;;;;;13.38;5.00;;;22.30;99.90;;;;;;5065223;28;20060;-85
2022/10/19 10:20:04;;;;;;;20.10;5.10;;;22.40;99.90;;;;;;5067331;28;20021;-84
2022/10/19 10:22:35;;;;;;;18.67;4.90;;;22.60;99.90;;;;;;5064929;28;20028;-83
2022/10/19 10:25:09;;;;;;;13.68;4.60;;;22.60;99.90;;;;;;5066873;28;20029;-84
2022/10/19 10:27:37;;;;;;;16.23;5.07;;;22.70;99.90;;;;;;5052423;28;20469;-83
2022/10/19 10:30:08;;;;;;;12.73;4.63;;;22.90;99.90;;;;;;5059001;28;20021;-84
2022/10/19 10:32:41;;;;;;;16.33;4.50;;;23.00;99.90;;;;;;5061495;28;20495;-84
2022/10/19 10:35:17;;;;;;;19.13;4.80;;;23.10;99.90;;;;;;5057508;28;20132;-83
2022/10/19 10:37:45;;;;;;;15.35;5.05;;;23.30;99.90;;;;;;5058536;28;20029;-85
2022/10/19 10:40:28;;;;;;;16.95;4.55;;;23.30;99.90;;;;;;5056371;28;20056;-86
2022/10/19 10:43:00;;;;;;;21.83;4.72;;;23.20;99.90;;;;;;5054984;28;20033;-85
2022/10/19 10:45:38;;;;;;;20.45;4.90;;;23.20;99.90;;;;;;5056286;28;20027;-85
2022/10/19 10:48:22;;;;;;;14.80;4.32;;;23.10;99.90;;;;;;5083180;28;20024;-85
2022/10/19 10:50:50;;;;;;;19.83;5.20;;;23.10;99.90;;;;;;5053443;28;20052;-85
2022/10/19 10:53:34;;;;;;;16.23;5.10;;;23.20;99.90;;;;;;5058738;28;20413;-85
2022/10/19 10:56:00;;;;;;;17.10;5.17;;;23.10;99.90;;;;;;5064600;28;20127;-83
2022/10/19 10:59:00;;;;;;;19.02;4.35;;;23.10;99.90;;;;;;5052851;28;20268;-84
2022/10/19 11:01:32;;;;;;;15.07;4.72;;;23.10;99.90;;;;;;5057895;28;20113;-84
2022/10/19 11:04:27;;;;;;;14.35;4.85;;;23.10;99.90;;;;;;5055081;28;20036;-85
2022/10/19 11:06:58;;;;;;;17.90;4.57;;;23.30;99.90;;;;;;5051805;28;20060;-85
2022/10/19 11:09:41;;;;;;;24.10;5.18;;;23.40;99.90;;;;;;5052425;28;20124;-84
2022/10/19 11:12:12;;;;;;;20.83;5.93;;;23.30;99.90;;;;;;5058676;28;20451;-85
2022/10/19 11:14:50;;;;;;;17.10;4.85;;;23.20;99.90;;;;;;5062823;28;20021;-84
2022/10/19 11:17:25;;;;;;;17.50;5.13;;;23.30;99.90;;;;;;5058101;28;20028;-85
2022/10/19 11:19:52;;;;;;;17.27;5.00;;;23.30;99.90;;;;;;5059082;28;20043;-85
2022/10/19 11:22:33;;;;;;;13.10;5.65;;;23.20;99.90;;;;;;5055772;28;20375;-85
2022/10/19 11:24:58;;;;;;;15.40;4.95;;;23.30;99.90;;;;;;5057180;28;20020;-85
2022/10/19 11:27:43;;;;;;;17.40;4.97;;;23.30;99.90;;;;;;5053453;28;20036;-85
2022/10/19 11:30:17;;;;;;;15.48;5.30;;;23.50;99.90;;;;;;5054023;28;20108;-85
2022/10/19 11:33:05;;;;;;;20.67;4.95;;;23.80;99.90;;;;;;5051870;28;20031;-85
2022/10/19 11:35:52;;;;;;;15.82;4.93;;;24.10;99.90;;;;;;5063692;28;20025;-85
2022/10/19 11:38:28;;;;;;;14.90;5.15;;;24.20;99.90;;;;;;5058575;28;20018;-85
2022/10/19 11:41:18;;;;;;;15.05;4.85;;;24.40;99.90;;;;;;5059189;28;20112;-85
2022/10/19 11:43:50;;;;;;;14.05;4.93;;;24.60;99.90;;;;;;5059034;28;20039;-85
2022/10/19 11:46:34;;;;;;;18.88;4.60;;;24.70;99.90;;;;;;5063653;28;20074;-85
2022/10/19 11:49:17;;;;;;;;;;;24.80;99.90;;;;;;5057882;28;20039;-85
2022/10/19 11:51:56;;;;;;;16.65;4.70;;;24.80;99.90;;;;;;5053220;28;19905;-85
2022/10/19 11:54:40;;;;;;;24.13;6.13;;;24.90;99.90;;;;;;5063274;28;20021;-85
2022/10/19 11:57:12;;;;;;;16.67;4.78;;;24.90;99.90;;;;;;5052726;28;20099;-85
2022/10/19 12:00:08;;;;;;;17.00;4.93;;;24.90;99.90;;;;;;5050548;28;20017;-85
2022/10/19 12:02:53;;;;;;;23.05;5.05;;;24.90;99.90;;;;;;5048959;28;20417;-85
2022/10/19 12:05:50;;;;;;;15.05;4.90;;;24.90;99.90;;;;;;5063467;28;20028;-85
2022/10/19 12:08:25;;;;;;;17.60;5.07;;;25.00;99.90;;;;;;5045787;28;20197;-85
2022/10/19 12:11:12;;;;;;;15.70;5.07;;;25.20;99.90;;;;;;5050608;28;20031;-85
2022/10/19 12:13:46;;;;;;;19.70;4.80;;;25.50;99.90;;;;;;5063162;28;20554;-85
2022/10/19 12:16:13;;;;;;;16.83;4.63;;;25.80;99.90;;;;;;5057216;28;20029;-85
2022/10/19 12:18:42;;;;;;;18.95;5.22;;;26.00;99.90;;;;;;5059169;28;20021;-85
2022/10/19 12:21:23;;;;;;;21.02;4.55;;;26.20;99.90;;;;;;5055026;28;20372;-85
2022/10/19 12:23:50;;;;;;;17.92;4.45;;;26.30;99.90;;;;;;5063089;28;20029;-85
2022/10/19 12:26:18;;;;;;;26.52;5.53;;;26.10;99.90;;;;;;5053166;28;20075;-84
2022/10/19 12:28:57;;;;;;;17.00;5.03;;;25.90;99.90;;;;;;5053994;28;20056;-85
2022/10/19 12:31:25;;;;;;;18.27;5.30;;;25.80;99.90;;;;;;5051683;28;20025;-85
2022/10/19 12:34:04;;;;;;;14.68;4.85;;;25.80;99.90;;;;;;5051222;28;20099;-85
2022/10/19 12:36:51;;;;;;;20.80;4.78;;;25.80;99.90;;;;;;5050348;28;20108;-85
2022/10/19 12:39:17;;;;;;;21.75;4.55;;;25.90;99.90;;;;;;5056126;28;20029;-85
2022/10/19 12:41:57;;;;;;;14.57;4.75;;;25.80;99.90;;;;;;5057373;28;20480;-85
2022/10/19 12:44:23;;;;;;;18.33;5.00;;;25.90;99.90;;;;;;5056484;28;20120;-85
2022/10/19 12:46:54;;;;;;;15.80;5.05;;;26.00;99.90;;;;;;5055247;28;20096;-85
2022/10/19 12:49:29;;;;;;;18.98;4.78;;;26.10;99.90;;;;;;5055131;28;20028;-85
2022/10/19 12:51:57;;;;;;;19.63;4.70;;;26.10;99.90;;;;;;5059635;28;20449;-85
2022/10/19 12:54:25;;;;;;;24.17;5.03;;;26.10;99.90;;;;;;5056740;28;20469;-85
2022/10/19 12:56:53;;;;;;;18.98;4.82;;;26.00;99.90;;;;;;5055243;28;20021;-85
2022/10/19 12:59:35;;;;;;;31.75;5.38;;;26.20;99.90;;;;;;5070510;28;20017;-85